sensor_id;sensor_type;location;lat;lon;timestamp;temperature;humidity
62573;DHT22;48626;51.678;5.806;2023-06-01T00:01:04;16.40;99.90
62573;DHT22;48626;51.678;5.806;2023-06-01T00:03:53;16.40;99.90
62573;DHT22;48626;51.678;5.806;2023-06-01T00:06:21;16.30;99.90
62573;DHT22;48626;51.678;5.806;2023-06-01T00:09:04;16.10;99.90
62573;DHT22;48626;51.678;5.806;2023-06-01T00:11:37;16.10;99.90
62573;DHT22;48626;51.678;5.806;2023-06-01T00:14:03;16.10;99.90
62573;DHT22;48626;51.678;5.806;2023-06-01T00:16:49;16.00;99.90
62573;DHT22;48626;51.678;5.806;2023-06-01T00:19:23;16.00;99.90
62573;DHT22;48626;51.678;5.806;2023-06-01T00:21:54;16.00;99.90
62573;DHT22;48626;51.678;5.806;2023-06-01T00:24:24;16.00;99.90
62573;DHT22;48626;51.678;5.806;2023-06-01T00:26:51;16.00;99.90
62573;DHT22;48626;51.678;5.806;2023-06-01T00:29:17;16.00;99.90
62573;DHT22;48626;51.678;5.806;2023-06-01T00:31:51;15.80;99.90
62573;DHT22;48626;51.678;5.806;2023-06-01T00:34:20;15.60;99.90
62573;DHT22;48626;51.678;5.806;2023-06-01T00:36:51;15.60;99.90
62573;DHT22;48626;51.678;5.806;2023-06-01T00:39:19;15.60;99.90
62573;DHT22;48626;51.678;5.806;2023-06-01T00:41:45;15.60;99.90
62573;DHT22;48626;51.678;5.806;2023-06-01T00:44:14;15.60;99.90
62573;DHT22;48626;51.678;5.806;2023-06-01T00:46:47;15.60;99.90
62573;DHT22;48626;51.678;5.806;2023-06-01T00:49:30;15.60;99.90
62573;DHT22;48626;51.678;5.806;2023-06-01T00:51:56;15.50;99.90
62573;DHT22;48626;51.678;5.806;2023-06-01T00:54:25;15.40;99.90
62573;DHT22;48626;51.678;5.806;2023-06-01T00:56:55;15.30;99.90
62573;DHT22;48626;51.678;5.806;2023-06-01T00:59:33;15.30;99.90
62573;DHT22;48626;51.678;5.806;2023-06-01T01:02:02;15.20;99.90
62573;DHT22;48626;51.678;5.806;2023-06-01T01:04:36;15.20;99.90
62573;DHT22;48626;51.678;5.806;2023-06-01T01:07:19;15.10;99.90
62573;DHT22;48626;51.678;5.806;2023-06-01T01:16:03;14.90;99.90
62573;DHT22;48626;51.678;5.806;2023-06-01T01:18:59;14.90;99.90
62573;DHT22;48626;51.678;5.806;2023-06-01T01:21:38;14.80;99.90
62573;DHT22;48626;51.678;5.806;2023-06-01T01:25:05;14.70;99.90
62573;DHT22;48626;51.678;5.806;2023-06-01T01:30:03;14.30;99.90
62573;DHT22;48626;51.678;5.806;2023-06-01T01:32:35;14.30;99.90
62573;DHT22;48626;51.678;5.806;2023-06-01T01:35:06;14.30;99.90
62573;DHT22;48626;51.678;5.806;2023-06-01T01:40:45;14.30;99.90
62573;DHT22;48626;51.678;5.806;2023-06-01T01:43:28;14.40;99.90
62573;DHT22;48626;51.678;5.806;2023-06-01T01:49:00;14.30;99.90
62573;DHT22;48626;51.678;5.806;2023-06-01T01:54:44;14.40;99.90
62573;DHT22;48626;51.678;5.806;2023-06-01T01:57:16;14.30;99.90
62573;DHT22;48626;51.678;5.806;2023-06-01T01:59:46;14.30;99.90
62573;DHT22;48626;51.678;5.806;2023-06-01T02:02:12;14.30;99.90
62573;DHT22;48626;51.678;5.806;2023-06-01T02:04:41;14.30;99.90
62573;DHT22;48626;51.678;5.806;2023-06-01T02:07:08;14.20;99.90
62573;DHT22;48626;51.678;5.806;2023-06-01T02:09:33;14.20;99.90
62573;DHT22;48626;51.678;5.806;2023-06-01T02:11:59;14.20;99.90
62573;DHT22;48626;51.678;5.806;2023-06-01T02:14:25;14.30;99.90
62573;DHT22;48626;51.678;5.806;2023-06-01T02:16:51;14.40;99.90
62573;DHT22;48626;51.678;5.806;2023-06-01T02:19:19;14.30;99.90
62573;DHT22;48626;51.678;5.806;2023-06-01T02:21:44;14.30;99.90
62573;DHT22;48626;51.678;5.806;2023-06-01T02:24:10;14.30;99.90
62573;DHT22;48626;51.678;5.806;2023-06-01T02:26:36;14.40;99.90
62573;DHT22;48626;51.678;5.806;2023-06-01T02:29:02;14.30;99.90
62573;DHT22;48626;51.678;5.806;2023-06-01T02:31:34;14.30;99.90
62573;DHT22;48626;51.678;5.806;2023-06-01T02:34:01;14.20;99.90
62573;DHT22;48626;51.678;5.806;2023-06-01T02:36:27;14.20;99.90
62573;DHT22;48626;51.678;5.806;2023-06-01T02:38:55;14.20;99.90
62573;DHT22;48626;51.678;5.806;2023-06-01T02:41:21;14.20;99.90
62573;DHT22;48626;51.678;5.806;2023-06-01T02:43:50;14.20;99.90
62573;DHT22;48626;51.678;5.806;2023-06-01T02:46:16;14.20;99.90
62573;DHT22;48626;51.678;5.806;2023-06-01T02:48:43;14.20;99.90
62573;DHT22;48626;51.678;5.806;2023-06-01T02:51:09;14.30;99.90
62573;DHT22;48626;51.678;5.806;2023-06-01T02:53:34;14.30;99.90
62573;DHT22;48626;51.678;5.806;2023-06-01T02:56:00;14.10;99.90
62573;DHT22;48626;51.678;5.806;2023-06-01T02:58:26;14.10;99.90
62573;DHT22;48626;51.678;5.806;2023-06-01T03:00:55;14.00;99.90
62573;DHT22;48626;51.678;5.806;2023-06-01T03:03:23;14.00;99.90
62573;DHT22;48626;51.678;5.806;2023-06-01T03:05:50;14.00;99.90
62573;DHT22;48626;51.678;5.806;2023-06-01T03:08:16;14.00;99.90
62573;DHT22;48626;51.678;5.806;2023-06-01T03:10:42;14.00;99.90
62573;DHT22;48626;51.678;5.806;2023-06-01T03:13:08;14.00;99.90
62573;DHT22;48626;51.678;5.806;2023-06-01T03:15:34;14.00;99.90
62573;DHT22;48626;51.678;5.806;2023-06-01T03:17:59;14.00;99.90
62573;DHT22;48626;51.678;5.806;2023-06-01T03:20:27;14.00;99.90
62573;DHT22;48626;51.678;5.806;2023-06-01T03:22:52;14.00;99.90
62573;DHT22;48626;51.678;5.806;2023-06-01T03:25:18;14.00;99.90
62573;DHT22;48626;51.678;5.806;2023-06-01T03:27:44;14.00;99.90
62573;DHT22;48626;51.678;5.806;2023-06-01T03:30:10;14.00;99.90
62573;DHT22;48626;51.678;5.806;2023-06-01T03:32:37;14.00;99.90
62573;DHT22;48626;51.678;5.806;2023-06-01T03:35:04;14.00;99.90
62573;DHT22;48626;51.678;5.806;2023-06-01T03:37:33;13.90;99.90
62573;DHT22;48626;51.678;5.806;2023-06-01T03:40:00;13.90;99.90
62573;DHT22;48626;51.678;5.806;2023-06-01T03:42:26;13.80;99.90
62573;DHT22;48626;51.678;5.806;2023-06-01T03:44:52;13.80;99.90
62573;DHT22;48626;51.678;5.806;2023-06-01T03:47:18;13.80;99.90
62573;DHT22;48626;51.678;5.806;2023-06-01T03:49:44;13.70;99.90
62573;DHT22;48626;51.678;5.806;2023-06-01T03:52:09;13.80;99.90
62573;DHT22;48626;51.678;5.806;2023-06-01T03:54:35;13.80;99.90
62573;DHT22;48626;51.678;5.806;2023-06-01T03:57:01;13.90;99.90
62573;DHT22;48626;51.678;5.806;2023-06-01T03:59:27;13.90;99.90
62573;DHT22;48626;51.678;5.806;2023-06-01T04:01:53;13.80;99.90
62573;DHT22;48626;51.678;5.806;2023-06-01T04:04:24;13.70;99.90
62573;DHT22;48626;51.678;5.806;2023-06-01T04:06:50;13.60;99.90
62573;DHT22;48626;51.678;5.806;2023-06-01T04:09:17;13.60;99.90
62573;DHT22;48626;51.678;5.806;2023-06-01T04:11:44;13.60;99.90
62573;DHT22;48626;51.678;5.806;2023-06-01T04:14:10;13.60;99.90
62573;DHT22;48626;51.678;5.806;2023-06-01T04:16:35;13.60;99.90
62573;DHT22;48626;51.678;5.806;2023-06-01T04:19:01;13.70;99.90
62573;DHT22;48626;51.678;5.806;2023-06-01T04:21:27;13.70;99.90
62573;DHT22;48626;51.678;5.806;2023-06-01T04:23:53;13.80;99.90
62573;DHT22;48626;51.678;5.806;2023-06-01T04:26:18;13.80;99.90
62573;DHT22;48626;51.678;5.806;2023-06-01T04:28:45;13.80;99.90
62573;DHT22;48626;51.678;5.806;2023-06-01T04:31:14;13.80;99.90
62573;DHT22;48626;51.678;5.806;2023-06-01T04:33:46;13.80;99.90
62573;DHT22;48626;51.678;5.806;2023-06-01T04:36:24;13.70;99.90
62573;DHT22;48626;51.678;5.806;2023-06-01T04:38:50;13.80;99.90
62573;DHT22;48626;51.678;5.806;2023-06-01T04:41:20;13.90;99.90
62573;DHT22;48626;51.678;5.806;2023-06-01T04:43:51;13.80;99.90
62573;DHT22;48626;51.678;5.806;2023-06-01T04:46:20;13.80;99.90
62573;DHT22;48626;51.678;5.806;2023-06-01T04:48:48;13.80;99.90
62573;DHT22;48626;51.678;5.806;2023-06-01T04:51:14;13.80;99.90
62573;DHT22;48626;51.678;5.806;2023-06-01T04:53:47;13.90;99.90
62573;DHT22;48626;51.678;5.806;2023-06-01T04:56:15;13.80;99.90
62573;DHT22;48626;51.678;5.806;2023-06-01T04:58:41;13.70;99.90
62573;DHT22;48626;51.678;5.806;2023-06-01T05:01:07;13.70;99.90
62573;DHT22;48626;51.678;5.806;2023-06-01T05:03:33;13.70;99.90
62573;DHT22;48626;51.678;5.806;2023-06-01T05:05:58;13.70;99.90
62573;DHT22;48626;51.678;5.806;2023-06-01T05:08:24;13.80;99.90
62573;DHT22;48626;51.678;5.806;2023-06-01T05:10:49;13.80;99.90
62573;DHT22;48626;51.678;5.806;2023-06-01T05:13:15;13.90;99.90
62573;DHT22;48626;51.678;5.806;2023-06-01T05:15:41;14.00;99.90
62573;DHT22;48626;51.678;5.806;2023-06-01T05:18:06;14.00;99.90
62573;DHT22;48626;51.678;5.806;2023-06-01T05:20:32;14.10;99.90
62573;DHT22;48626;51.678;5.806;2023-06-01T05:22:58;14.10;99.90
62573;DHT22;48626;51.678;5.806;2023-06-01T05:25:23;14.20;99.90
62573;DHT22;48626;51.678;5.806;2023-06-01T05:27:49;14.20;99.90
62573;DHT22;48626;51.678;5.806;2023-06-01T05:30:15;14.30;99.90
62573;DHT22;48626;51.678;5.806;2023-06-01T05:32:40;14.20;99.90
62573;DHT22;48626;51.678;5.806;2023-06-01T05:35:06;14.20;99.90
62573;DHT22;48626;51.678;5.806;2023-06-01T05:37:32;14.20;99.90
62573;DHT22;48626;51.678;5.806;2023-06-01T05:39:58;14.20;99.90
62573;DHT22;48626;51.678;5.806;2023-06-01T05:42:23;14.20;99.90
62573;DHT22;48626;51.678;5.806;2023-06-01T05:44:49;14.20;99.90
62573;DHT22;48626;51.678;5.806;2023-06-01T05:47:15;14.20;99.90
62573;DHT22;48626;51.678;5.806;2023-06-01T05:49:40;14.10;99.90
62573;DHT22;48626;51.678;5.806;2023-06-01T05:52:06;14.10;99.90
62573;DHT22;48626;51.678;5.806;2023-06-01T05:54:32;14.20;99.90
62573;DHT22;48626;51.678;5.806;2023-06-01T05:56:57;14.20;99.90
62573;DHT22;48626;51.678;5.806;2023-06-01T05:59:23;14.30;99.90
62573;DHT22;48626;51.678;5.806;2023-06-01T06:01:48;14.30;99.90
62573;DHT22;48626;51.678;5.806;2023-06-01T06:04:14;14.40;99.90
62573;DHT22;48626;51.678;5.806;2023-06-01T06:06:40;14.50;99.90
62573;DHT22;48626;51.678;5.806;2023-06-01T06:09:06;14.50;99.90
62573;DHT22;48626;51.678;5.806;2023-06-01T06:11:31;14.50;99.90
62573;DHT22;48626;51.678;5.806;2023-06-01T06:13:57;14.50;99.90
62573;DHT22;48626;51.678;5.806;2023-06-01T06:16:23;14.50;99.90
62573;DHT22;48626;51.678;5.806;2023-06-01T06:18:48;14.60;99.90
62573;DHT22;48626;51.678;5.806;2023-06-01T06:21:14;14.70;99.90
62573;DHT22;48626;51.678;5.806;2023-06-01T06:23:40;14.90;99.90
62573;DHT22;48626;51.678;5.806;2023-06-01T06:26:06;15.00;99.90
62573;DHT22;48626;51.678;5.806;2023-06-01T06:28:32;15.10;99.90
62573;DHT22;48626;51.678;5.806;2023-06-01T06:30:58;15.20;99.90
62573;DHT22;48626;51.678;5.806;2023-06-01T06:33:24;15.20;99.90
62573;DHT22;48626;51.678;5.806;2023-06-01T06:35:50;15.30;99.90
62573;DHT22;48626;51.678;5.806;2023-06-01T06:38:16;15.30;99.90
62573;DHT22;48626;51.678;5.806;2023-06-01T06:40:42;15.40;99.90
62573;DHT22;48626;51.678;5.806;2023-06-01T06:43:08;15.60;99.90
62573;DHT22;48626;51.678;5.806;2023-06-01T06:45:34;15.70;99.90
62573;DHT22;48626;51.678;5.806;2023-06-01T06:48:00;15.70;99.90
62573;DHT22;48626;51.678;5.806;2023-06-01T06:50:26;15.80;99.90
62573;DHT22;48626;51.678;5.806;2023-06-01T06:52:51;15.70;99.90
62573;DHT22;48626;51.678;5.806;2023-06-01T06:55:17;15.60;99.90
62573;DHT22;48626;51.678;5.806;2023-06-01T06:57:43;15.60;99.90
62573;DHT22;48626;51.678;5.806;2023-06-01T07:00:09;15.50;99.90
62573;DHT22;48626;51.678;5.806;2023-06-01T07:02:40;15.40;99.90
62573;DHT22;48626;51.678;5.806;2023-06-01T07:05:07;15.40;99.90
62573;DHT22;48626;51.678;5.806;2023-06-01T07:07:33;15.30;99.90
62573;DHT22;48626;51.678;5.806;2023-06-01T07:09:59;15.40;99.90
62573;DHT22;48626;51.678;5.806;2023-06-01T07:12:25;15.50;99.90
62573;DHT22;48626;51.678;5.806;2023-06-01T07:14:51;15.70;99.90
62573;DHT22;48626;51.678;5.806;2023-06-01T07:17:17;15.80;99.90
62573;DHT22;48626;51.678;5.806;2023-06-01T07:19:42;15.90;99.90
62573;DHT22;48626;51.678;5.806;2023-06-01T07:22:08;15.80;99.90
62573;DHT22;48626;51.678;5.806;2023-06-01T07:24:33;15.70;99.90
62573;DHT22;48626;51.678;5.806;2023-06-01T07:29:57;15.70;99.90
62573;DHT22;48626;51.678;5.806;2023-06-01T07:32:27;15.70;99.90
62573;DHT22;48626;51.678;5.806;2023-06-01T07:35:04;15.70;99.90
62573;DHT22;48626;51.678;5.806;2023-06-01T07:41:14;15.70;99.90
62573;DHT22;48626;51.678;5.806;2023-06-01T07:44:06;15.80;99.90
62573;DHT22;48626;51.678;5.806;2023-06-01T07:46:33;15.90;99.90
62573;DHT22;48626;51.678;5.806;2023-06-01T07:48:58;16.00;99.90
62573;DHT22;48626;51.678;5.806;2023-06-01T07:51:24;16.00;99.90
62573;DHT22;48626;51.678;5.806;2023-06-01T07:53:50;16.00;99.90
62573;DHT22;48626;51.678;5.806;2023-06-01T07:56:15;16.00;99.90
62573;DHT22;48626;51.678;5.806;2023-06-01T07:58:41;16.10;99.90
62573;DHT22;48626;51.678;5.806;2023-06-01T08:01:07;16.10;99.90
62573;DHT22;48626;51.678;5.806;2023-06-01T08:03:33;16.10;99.90
62573;DHT22;48626;51.678;5.806;2023-06-01T08:05:59;16.20;99.90
62573;DHT22;48626;51.678;5.806;2023-06-01T08:08:30;16.30;99.90
62573;DHT22;48626;51.678;5.806;2023-06-01T08:10:56;16.40;99.90
62573;DHT22;48626;51.678;5.806;2023-06-01T08:13:22;16.40;99.90
62573;DHT22;48626;51.678;5.806;2023-06-01T08:15:48;16.50;99.90
62573;DHT22;48626;51.678;5.806;2023-06-01T08:18:14;16.60;99.90
62573;DHT22;48626;51.678;5.806;2023-06-01T08:20:41;16.70;99.90
62573;DHT22;48626;51.678;5.806;2023-06-01T08:23:07;16.80;99.90
62573;DHT22;48626;51.678;5.806;2023-06-01T08:25:33;16.90;99.90
62573;DHT22;48626;51.678;5.806;2023-06-01T08:27:59;17.00;99.90
62573;DHT22;48626;51.678;5.806;2023-06-01T08:30:26;17.00;99.90
62573;DHT22;48626;51.678;5.806;2023-06-01T08:32:51;17.10;99.90
62573;DHT22;48626;51.678;5.806;2023-06-01T08:35:17;17.20;99.90
62573;DHT22;48626;51.678;5.806;2023-06-01T08:37:47;17.30;99.90
62573;DHT22;48626;51.678;5.806;2023-06-01T08:40:13;17.30;99.90
62573;DHT22;48626;51.678;5.806;2023-06-01T08:45:12;17.50;99.90
62573;DHT22;48626;51.678;5.806;2023-06-01T08:47:40;17.60;99.90
62573;DHT22;48626;51.678;5.806;2023-06-01T08:50:08;17.70;99.90
62573;DHT22;48626;51.678;5.806;2023-06-01T08:52:34;17.80;99.90
62573;DHT22;48626;51.678;5.806;2023-06-01T08:55:03;17.90;99.90
62573;DHT22;48626;51.678;5.806;2023-06-01T08:57:29;17.90;99.90
62573;DHT22;48626;51.678;5.806;2023-06-01T08:59:55;18.00;99.90
62573;DHT22;48626;51.678;5.806;2023-06-01T09:02:22;18.00;99.90
62573;DHT22;48626;51.678;5.806;2023-06-01T09:04:49;18.00;99.90
62573;DHT22;48626;51.678;5.806;2023-06-01T09:07:16;18.10;99.90
62573;DHT22;48626;51.678;5.806;2023-06-01T09:09:42;18.20;99.90
62573;DHT22;48626;51.678;5.806;2023-06-01T09:12:27;18.30;99.90
62573;DHT22;48626;51.678;5.806;2023-06-01T09:17:36;18.40;99.90
62573;DHT22;48626;51.678;5.806;2023-06-01T09:20:03;18.40;99.90
62573;DHT22;48626;51.678;5.806;2023-06-01T09:22:43;18.50;99.90
62573;DHT22;48626;51.678;5.806;2023-06-01T09:25:09;18.60;99.90
62573;DHT22;48626;51.678;5.806;2023-06-01T09:27:49;18.70;99.90
62573;DHT22;48626;51.678;5.806;2023-06-01T09:30:17;18.80;99.90
62573;DHT22;48626;51.678;5.806;2023-06-01T09:32:50;18.90;99.90
62573;DHT22;48626;51.678;5.806;2023-06-01T09:35:47;19.00;99.90
62573;DHT22;48626;51.678;5.806;2023-06-01T09:38:24;19.10;99.90
62573;DHT22;48626;51.678;5.806;2023-06-01T09:41:01;19.20;99.90
62573;DHT22;48626;51.678;5.806;2023-06-01T09:43:27;19.30;99.90
62573;DHT22;48626;51.678;5.806;2023-06-01T09:46:07;19.30;99.90
62573;DHT22;48626;51.678;5.806;2023-06-01T09:48:33;19.40;99.90
62573;DHT22;48626;51.678;5.806;2023-06-01T09:50:59;19.50;99.90
62573;DHT22;48626;51.678;5.806;2023-06-01T09:53:25;19.60;99.90
62573;DHT22;48626;51.678;5.806;2023-06-01T09:55:59;19.70;99.90
62573;DHT22;48626;51.678;5.806;2023-06-01T09:58:25;19.80;99.90
62573;DHT22;48626;51.678;5.806;2023-06-01T10:00:51;19.90;99.90
62573;DHT22;48626;51.678;5.806;2023-06-01T10:03:22;20.00;99.90
62573;DHT22;48626;51.678;5.806;2023-06-01T10:05:48;20.00;99.90
62573;DHT22;48626;51.678;5.806;2023-06-01T10:08:16;20.00;99.90
62573;DHT22;48626;51.678;5.806;2023-06-01T10:10:44;20.20;99.90
62573;DHT22;48626;51.678;5.806;2023-06-01T10:13:11;20.20;99.90
62573;DHT22;48626;51.678;5.806;2023-06-01T10:15:37;20.40;99.90
62573;DHT22;48626;51.678;5.806;2023-06-01T10:18:04;20.70;99.90
62573;DHT22;48626;51.678;5.806;2023-06-01T10:20:37;20.70;99.90
62573;DHT22;48626;51.678;5.806;2023-06-01T10:23:05;20.90;99.90
62573;DHT22;48626;51.678;5.806;2023-06-01T10:25:45;21.00;99.90
62573;DHT22;48626;51.678;5.806;2023-06-01T10:28:16;21.00;99.90
62573;DHT22;48626;51.678;5.806;2023-06-01T10:30:42;21.10;99.90
62573;DHT22;48626;51.678;5.806;2023-06-01T10:33:08;21.30;99.90
62573;DHT22;48626;51.678;5.806;2023-06-01T10:41:25;21.70;99.90
62573;DHT22;48626;51.678;5.806;2023-06-01T10:43:52;22.10;99.90
62573;DHT22;48626;51.678;5.806;2023-06-01T10:46:37;22.40;99.90
62573;DHT22;48626;51.678;5.806;2023-06-01T10:49:03;22.50;99.90
62573;DHT22;48626;51.678;5.806;2023-06-01T10:51:30;22.60;99.90
62573;DHT22;48626;51.678;5.806;2023-06-01T11:00:16;23.00;99.90
62573;DHT22;48626;51.678;5.806;2023-06-01T11:11:00;23.50;99.90
62573;DHT22;48626;51.678;5.806;2023-06-01T11:13:29;23.40;99.90
62573;DHT22;48626;51.678;5.806;2023-06-01T11:21:18;24.00;99.90
62573;DHT22;48626;51.678;5.806;2023-06-01T11:23:47;24.20;99.90
62573;DHT22;48626;51.678;5.806;2023-06-01T11:26:17;24.30;99.90
62573;DHT22;48626;51.678;5.806;2023-06-01T11:28:45;24.60;99.90
62573;DHT22;48626;51.678;5.806;2023-06-01T11:31:16;24.60;99.90
62573;DHT22;48626;51.678;5.806;2023-06-01T11:33:49;24.90;99.90
62573;DHT22;48626;51.678;5.806;2023-06-01T11:36:18;25.00;99.90
62573;DHT22;48626;51.678;5.806;2023-06-01T11:38:46;25.10;99.90
62573;DHT22;48626;51.678;5.806;2023-06-01T11:41:11;25.10;99.90
62573;DHT22;48626;51.678;5.806;2023-06-01T11:43:37;25.30;99.90
62573;DHT22;48626;51.678;5.806;2023-06-01T11:46:07;25.40;99.90
62573;DHT22;48626;51.678;5.806;2023-06-01T11:48:33;25.40;99.90
62573;DHT22;48626;51.678;5.806;2023-06-01T11:51:03;25.60;99.90
62573;DHT22;48626;51.678;5.806;2023-06-01T11:53:30;25.70;99.90
62573;DHT22;48626;51.678;5.806;2023-06-01T11:55:58;25.70;99.90
62573;DHT22;48626;51.678;5.806;2023-06-01T11:58:24;25.90;99.90
62573;DHT22;48626;51.678;5.806;2023-06-01T12:00:51;26.00;99.90
62573;DHT22;48626;51.678;5.806;2023-06-01T12:03:17;26.10;99.90
62573;DHT22;48626;51.678;5.806;2023-06-01T12:05:43;26.20;99.90
62573;DHT22;48626;51.678;5.806;2023-06-01T12:08:19;26.30;99.90
62573;DHT22;48626;51.678;5.806;2023-06-01T12:10:46;26.50;99.90
62573;DHT22;48626;51.678;5.806;2023-06-01T12:13:14;26.50;99.90
62573;DHT22;48626;51.678;5.806;2023-06-01T12:15:40;26.50;99.90
62573;DHT22;48626;51.678;5.806;2023-06-01T12:18:06;26.40;99.90
62573;DHT22;48626;51.678;5.806;2023-06-01T12:20:33;26.30;99.90
62573;DHT22;48626;51.678;5.806;2023-06-01T12:23:22;26.30;99.90
62573;DHT22;48626;51.678;5.806;2023-06-01T12:25:52;26.20;99.90
62573;DHT22;48626;51.678;5.806;2023-06-01T12:28:19;26.20;99.90
62573;DHT22;48626;51.678;5.806;2023-06-01T12:30:46;26.50;99.90
62573;DHT22;48626;51.678;5.806;2023-06-01T12:33:34;26.80;99.90
62573;DHT22;48626;51.678;5.806;2023-06-01T12:36:01;26.70;99.90
62573;DHT22;48626;51.678;5.806;2023-06-01T12:38:28;26.90;99.90
62573;DHT22;48626;51.678;5.806;2023-06-01T12:41:11;27.10;99.90
62573;DHT22;48626;51.678;5.806;2023-06-01T12:43:37;27.20;99.90
62573;DHT22;48626;51.678;5.806;2023-06-01T12:46:03;27.20;99.90
62573;DHT22;48626;51.678;5.806;2023-06-01T12:48:36;27.20;99.90
62573;DHT22;48626;51.678;5.806;2023-06-01T12:51:04;27.50;99.90
62573;DHT22;48626;51.678;5.806;2023-06-01T12:53:30;27.50;99.90
62573;DHT22;48626;51.678;5.806;2023-06-01T12:55:56;27.70;99.90
62573;DHT22;48626;51.678;5.806;2023-06-01T12:58:22;27.80;99.90
62573;DHT22;48626;51.678;5.806;2023-06-01T13:00:47;27.90;99.90
62573;DHT22;48626;51.678;5.806;2023-06-01T13:03:14;28.20;99.90
62573;DHT22;48626;51.678;5.806;2023-06-01T13:05:43;28.40;99.90
62573;DHT22;48626;51.678;5.806;2023-06-01T13:08:15;28.30;99.90
62573;DHT22;48626;51.678;5.806;2023-06-01T13:10:44;28.10;99.90
62573;DHT22;48626;51.678;5.806;2023-06-01T13:13:10;28.20;99.90
62573;DHT22;48626;51.678;5.806;2023-06-01T13:15:45;28.40;99.90
62573;DHT22;48626;51.678;5.806;2023-06-01T13:18:11;28.40;99.90
62573;DHT22;48626;51.678;5.806;2023-06-01T13:20:38;28.40;99.90
62573;DHT22;48626;51.678;5.806;2023-06-01T13:23:07;28.60;99.90
62573;DHT22;48626;51.678;5.806;2023-06-01T13:25:33;28.80;99.90
62573;DHT22;48626;51.678;5.806;2023-06-01T13:28:00;28.90;99.90
62573;DHT22;48626;51.678;5.806;2023-06-01T13:30:26;29.00;99.90
62573;DHT22;48626;51.678;5.806;2023-06-01T13:32:54;29.10;99.90
62573;DHT22;48626;51.678;5.806;2023-06-01T13:35:20;29.30;99.90
62573;DHT22;48626;51.678;5.806;2023-06-01T13:37:46;29.60;99.90
62573;DHT22;48626;51.678;5.806;2023-06-01T13:40:12;29.80;99.90
62573;DHT22;48626;51.678;5.806;2023-06-01T13:42:38;29.80;99.90
62573;DHT22;48626;51.678;5.806;2023-06-01T13:45:04;29.80;99.90
62573;DHT22;48626;51.678;5.806;2023-06-01T13:47:30;29.90;99.90
62573;DHT22;48626;51.678;5.806;2023-06-01T13:49:56;29.90;99.90
62573;DHT22;48626;51.678;5.806;2023-06-01T13:52:21;29.90;99.90
62573;DHT22;48626;51.678;5.806;2023-06-01T13:54:50;30.00;99.90
62573;DHT22;48626;51.678;5.806;2023-06-01T13:57:16;30.10;99.90
62573;DHT22;48626;51.678;5.806;2023-06-01T13:59:42;30.30;99.90
62573;DHT22;48626;51.678;5.806;2023-06-01T14:02:08;30.50;99.90
62573;DHT22;48626;51.678;5.806;2023-06-01T14:04:34;30.80;99.90
62573;DHT22;48626;51.678;5.806;2023-06-01T14:07:00;30.90;99.90
62573;DHT22;48626;51.678;5.806;2023-06-01T14:09:26;31.00;99.90
62573;DHT22;48626;51.678;5.806;2023-06-01T14:11:51;31.20;99.90
62573;DHT22;48626;51.678;5.806;2023-06-01T14:14:17;31.20;99.90
62573;DHT22;48626;51.678;5.806;2023-06-01T14:16:42;31.20;99.90
62573;DHT22;48626;51.678;5.806;2023-06-01T14:19:08;31.00;99.90
62573;DHT22;48626;51.678;5.806;2023-06-01T14:21:34;31.00;99.90
62573;DHT22;48626;51.678;5.806;2023-06-01T14:24:01;31.00;99.90
62573;DHT22;48626;51.678;5.806;2023-06-01T14:26:27;31.00;99.90
62573;DHT22;48626;51.678;5.806;2023-06-01T14:28:53;31.10;99.90
62573;DHT22;48626;51.678;5.806;2023-06-01T14:31:19;31.10;99.90
62573;DHT22;48626;51.678;5.806;2023-06-01T14:33:46;31.20;99.90
62573;DHT22;48626;51.678;5.806;2023-06-01T14:36:12;31.40;99.90
62573;DHT22;48626;51.678;5.806;2023-06-01T14:38:37;31.30;99.90
62573;DHT22;48626;51.678;5.806;2023-06-01T14:41:03;31.30;99.90
62573;DHT22;48626;51.678;5.806;2023-06-01T14:43:29;31.30;99.90
62573;DHT22;48626;51.678;5.806;2023-06-01T14:45:56;31.70;99.90
62573;DHT22;48626;51.678;5.806;2023-06-01T14:48:22;32.00;99.90
62573;DHT22;48626;51.678;5.806;2023-06-01T14:50:47;32.10;99.90
62573;DHT22;48626;51.678;5.806;2023-06-01T14:53:13;32.10;99.90
62573;DHT22;48626;51.678;5.806;2023-06-01T14:55:40;31.90;99.90
62573;DHT22;48626;51.678;5.806;2023-06-01T14:58:07;31.90;99.90
62573;DHT22;48626;51.678;5.806;2023-06-01T15:00:32;31.90;99.90
62573;DHT22;48626;51.678;5.806;2023-06-01T15:02:58;31.80;99.90
62573;DHT22;48626;51.678;5.806;2023-06-01T15:05:24;31.40;99.90
62573;DHT22;48626;51.678;5.806;2023-06-01T15:07:50;31.60;99.90
62573;DHT22;48626;51.678;5.806;2023-06-01T15:10:15;31.30;99.90
62573;DHT22;48626;51.678;5.806;2023-06-01T15:12:41;31.20;99.90
62573;DHT22;48626;51.678;5.806;2023-06-01T15:15:07;31.40;99.90
62573;DHT22;48626;51.678;5.806;2023-06-01T15:17:33;31.30;99.90
62573;DHT22;48626;51.678;5.806;2023-06-01T15:19:58;31.30;99.90
62573;DHT22;48626;51.678;5.806;2023-06-01T15:22:24;31.30;99.90
62573;DHT22;48626;51.678;5.806;2023-06-01T15:24:50;31.30;99.90
62573;DHT22;48626;51.678;5.806;2023-06-01T15:27:16;31.70;99.90
62573;DHT22;48626;51.678;5.806;2023-06-01T15:29:42;31.60;99.90
62573;DHT22;48626;51.678;5.806;2023-06-01T15:32:07;31.40;99.90
62573;DHT22;48626;51.678;5.806;2023-06-01T15:34:33;31.70;99.90
62573;DHT22;48626;51.678;5.806;2023-06-01T15:36:59;31.60;99.90
62573;DHT22;48626;51.678;5.806;2023-06-01T15:39:25;31.70;99.90
62573;DHT22;48626;51.678;5.806;2023-06-01T15:41:50;31.70;99.90
62573;DHT22;48626;51.678;5.806;2023-06-01T15:44:16;31.90;99.90
62573;DHT22;48626;51.678;5.806;2023-06-01T15:46:44;32.10;99.90
62573;DHT22;48626;51.678;5.806;2023-06-01T15:49:11;32.00;99.90
62573;DHT22;48626;51.678;5.806;2023-06-01T15:51:36;32.20;99.90
62573;DHT22;48626;51.678;5.806;2023-06-01T15:54:03;32.30;99.90
62573;DHT22;48626;51.678;5.806;2023-06-01T15:56:29;32.50;99.90
62573;DHT22;48626;51.678;5.806;2023-06-01T15:58:55;32.20;99.90
62573;DHT22;48626;51.678;5.806;2023-06-01T16:01:20;32.40;99.90
62573;DHT22;48626;51.678;5.806;2023-06-01T16:03:46;32.70;99.90
62573;DHT22;48626;51.678;5.806;2023-06-01T16:06:11;32.80;99.90
62573;DHT22;48626;51.678;5.806;2023-06-01T16:08:37;32.70;99.90
62573;DHT22;48626;51.678;5.806;2023-06-01T16:11:03;32.70;99.90
62573;DHT22;48626;51.678;5.806;2023-06-01T16:13:28;32.50;99.90
62573;DHT22;48626;51.678;5.806;2023-06-01T16:15:56;32.10;99.90
62573;DHT22;48626;51.678;5.806;2023-06-01T16:18:22;32.00;99.90
62573;DHT22;48626;51.678;5.806;2023-06-01T16:20:47;32.10;99.90
62573;DHT22;48626;51.678;5.806;2023-06-01T16:23:13;32.10;99.90
62573;DHT22;48626;51.678;5.806;2023-06-01T16:25:39;32.40;99.90
62573;DHT22;48626;51.678;5.806;2023-06-01T16:28:04;32.50;99.90
62573;DHT22;48626;51.678;5.806;2023-06-01T16:30:30;32.20;99.90